Weather observations for the past three days for
East Troy Municipal Airport
Metric (Imperial)
Date Time (cdt) Wind (kph) Vis. (km) Weather Sky Cond. Temperature (ºC) Relative Humidity Wind Chill (°C) Heat Index (°C) Pressure Precipitation (cm)
Air Dwpt 6 hour altimeter (cm) sea level (mb) 1 hr 3 hr 6 hr
Max. Min.
05 17:35 W 19 G 31 16.09 Fair CLR 12.5 -4.7 30% 75.64 0.0
05 17:15 NW 20 16.09 Fair CLR 13 -4.1 30% 75.62 0.0
05 16:55 W 15 G 28 16.09 Fair CLR 13.1 -3.8 31% 75.62 0.0
05 16:35 NW 15 G 31 16.09 Fair CLR 12.5 -3.5 33% 75.62 0.0
05 16:15 W 20 16.09 Fair CLR 13 -3.8 31% 75.62 0.0
05 15:55 W 20 G 30 16.09 Fair CLR 13.1 -2.8 33% 75.62 0.0
05 15:35 W 17 16.09 Fair CLR 12.7 -2.9 34% 75.62 0.0
05 15:15 W 22 G 30 16.09 Fair CLR 12.5 -3.3 33% 75.64 0.0
05 14:55 W 20 G 28 16.09 Fair CLR 13 -1.4 37% 75.67 0.0
05 14:35 W 22 G 31 16.09 Fair CLR 12.2 -2.8 35% 75.67 0.0
05 14:15 W 19 G 28 16.09 Fair CLR 12.6 -2.1 36% 75.69 0.0
05 13:55 W 24 G 33 16.09 Fair CLR 11.7 -3.1 36% 75.67 0.0
05 13:35 NW 31 G 39 16.09 Fair CLR 11.9 -3.7 34% 75.67 0.0
05 13:15 W 26 G 41 16.09 Fair CLR 12.1 -3.9 33% 75.67 0.0
05 12:55 NW 19 G 33 16.09 Fair CLR 12.2 -4.1 12.3 6.7 32% 75.64 0.0
05 12:35 NW 22 G 39 16.09 Fair CLR 11.9 -4.6 32% 75.64 0.0
05 12:10 NW 26 G 37 16.09 Fair CLR 11.1 -3.9 35% 75.64 0.0
05 11:55 NW 26 G 37 16.09 Fair CLR 11.1 -4.2 34% 75.62 0.0
05 11:35 NW 24 G 43 16.09 Fair CLR 10.9 -4.6 34% 75.62 0.0
05 11:15 W 26 G 35 16.09 Fair CLR 11.1 -3.3 37% 75.64 0.0
05 10:55 W 24 G 31 16.09 Fair CLR 11.4 -3.4 36% 75.64 0.0
05 10:35 W 17 G 31 16.09 Fair CLR 10.8 -3.6 37% 75.62 0.0
05 10:15 W 9 G 31 16.09 Fair CLR 10.5 -2.3 41% 75.64 0.0
05 09:55 W 24 G 30 16.09 Fair CLR 10.8 -2.6 39% 75.62 0.0
05 09:35 W 20 16.09 Fair CLR 10.5 -2.4 41% 75.62 0.0
05 09:15 W 22 G 37 16.09 Fair CLR 9.8 -3.7 39% 7 75.64 0.0
05 08:55 W 20 G 37 16.09 Fair CLR 9.7 -2.6 42% 7 75.64 0.0
05 08:15 W 13 G 28 16.09 Fair CLR 9.4 -3.1 42% 8 75.64 0.0
05 07:55 W 11 16.09 Fair CLR 8.3 -3.6 43% 7 75.64 0.0
05 07:35 NW 15 16.09 Fair CLR 7.9 -2.5 48% 6 75.62 0.0
05 07:15 NW 9 16.09 Fair CLR 7 -2.7 50% 5 75.62 0.0
05 06:55 W 6 16.09 Fair CLR 6.6 -1.8 12.3 6 55% 75.69 0.0
05 06:35 NW 6 16.09 Fair CLR 6.3 -1.9 56% 75.54 0.0
05 06:15 NW 7 16.09 Fair CLR 6.6 -2.4 53% 5 75.51 0.0
05 05:55 NW 11 16.09 Fair CLR 6.5 -1.8 56% 5 75.57 0.0
05 05:35 NW 6 16.09 Partly Cloudy SCT110 7.1 -2.5 51% 75.54 0.0
05 04:55 NW 9 16.09 Fair CLR 7.5 -2.6 49% 6 75.46 0.0
05 04:35 NW 9 16.09 Fair CLR 7.5 -2.9 48% 6 75.46 0.0
05 04:15 NW 13 16.09 Fair CLR 7.6 -2.3 50% 6 75.49 0.0
05 03:55 NW 6 16.09 Fair CLR 7.8 -2.1 50% 75.44 0.0
05 03:35 N 9 16.09 Fair CLR 8.3 -2.2 48% 7 75.39 0.0
05 03:15 N 17 16.09 Fair CLR 8.7 -2.3 46% 6 75.36 0.0
05 02:55 N 11 16.09 Fair CLR 9.1 -1 50% 8 75.34 0.0
05 02:35 N 13 16.09 Fair CLR 9.6 -1.4 47% 8 75.26 0.0
05 02:15 NW 13 16.09 Fair CLR 9.9 -1.3 46% 8 75.29 0.0
05 01:55 NW 20 G 31 16.09 Fair CLR 10.6 -1.4 44% 75.29 0.0
05 01:35 NW 22 G 31 16.09 Fair CLR 11.1 -0.1 46% 75.23 0.0
05 01:15 N 19 G 26 16.09 Fair CLR 11.9 -0.1 44% 75.21 0.0
05 00:55 NW 11 16.09 Fair CLR 12.3 -0.1 22.7 12.3 43% 75.21 0.0
05 00:35 NW 19 G 28 16.09 Fair CLR 12.5 -0.4 41% 75.18 0.0
05 00:15 NW 17 16.09 Partly Cloudy SCT120 13 -0.4 40% 75.16 0.0
04 23:55 NW 15 G 35 16.09 Partly Cloudy SCT120 13.7 -0.8 37% 75.13 0.0
04 23:35 NW 22 G 37 16.09 Partly Cloudy SCT120 14.6 -0.7 35% 75.11 0.0
04 23:15 NW 17 16.09 Fair CLR 15 0.3 37% 75.06 0.0
04 22:55 NW 20 16.09 Partly Cloudy SCT100 15.5 0.4 36% 75.06 0.0
04 22:35 NW 20 G 30 16.09 Fair CLR 16.1 0.2 34% 75.06 0.0
04 22:15 W 15 16.09 Fair CLR 16.2 1 36% 75.06 0.0
04 21:55 W 15 16.09 Partly Cloudy SCT120 16.3 0.9 35% 75.03 0.0
04 21:35 W 19 16.09 Fair CLR 16.7 0.9 35% 75.03 0.0
04 21:15 NW 26 G 37 16.09 Fair CLR 17.8 1.1 33% 74.98 0.0
04 20:55 NW 33 G 44 16.09 Fair and Breezy CLR 18.8 2.7 34% 74.93 0.0
04 20:35 NW 20 G 30 16.09 Fair CLR 19.4 4.8 38% 74.88 0.0
04 20:15 NW 15 16.09 Fair CLR 19.5 5.4 40% 74.8 0.0
04 19:55 NW 20 16.09 Fair CLR 21.3 5.2 35% 74.78 0.0
04 19:15 W 11 16.09 Fair CLR 22.2 6.2 36% 74.68 0.0
04 18:55 W 11 16.09 Fair CLR 22.8 5.9 25.6 22.2 34% 74.7 0.0
04 18:35 W 11 16.09 Fair CLR 23 6.3 34% 74.7 0.0
04 18:15 SW 17 G 37 16.09 Thunderstorm in Vicinity SCT090 SCT120 23.6 3.6 27% 74.73 0.0
04 17:55 SW 35 G 70 11.27 Rain and Breezy SCT090 BKN120 23 3.3 28% 74.75 0.0
04 17:35 W 19 G 28 16.09 Partly Cloudy SCT100 SCT120 24.6 4.9 28% 25 74.73 0.0
04 17:15 SW 30 G 43 16.09 Partly Cloudy SCT100 SCT120 25.2 4.6 27% 25 74.73 0.0
04 16:55 W 19 G 30 16.09 Mostly Cloudy SCT100 BKN120 24.7 4.5 27% 25 74.75 0.0
04 16:35 W 22 G 44 16.09 Partly Cloudy SCT100 24.6 4.1 27% 25 74.75 0.0
04 16:15 W 26 G 41 16.09 Partly Cloudy SCT100 25 4.7 27% 25 74.75 0.0
04 15:55 W 15 G 46 16.09 Partly Cloudy SCT100 25.2 4.6 27% 25 74.78 0.0
04 15:35 W 26 G 41 16.09 Partly Cloudy SCT095 25.4 5 27% 25 74.8 0.0
04 15:15 SW 19 G 31 16.09 Partly Cloudy SCT095 25.2 4 25% 25 74.83 0.0
04 14:55 W 24 G 43 16.09 Fair CLR 25.1 4.2 26% 25 74.85 0.0
04 14:35 SW 20 G 39 16.09 Fair CLR 25.1 3.4 25% 25 74.83 0.0
04 14:15 SW 22 G 35 16.09 Fair CLR 24.5 3.5 26% 25 74.85 0.0
04 13:55 SW 20 G 39 16.09 Fair CLR 24.1 2.9 25% 25 74.85 0.0
04 13:35 SW 20 G 39 16.09 Fair CLR 23.8 2.6 25% 74.88 0.0
04 13:15 SW 20 G 46 16.09 Fair CLR 23.7 3.3 26% 74.88 0.0
04 12:55 SW 22 G 43 16.09 Fair CLR 23.1 1.9 23.4 11.8 25% 74.9 0.0
04 12:35 W 22 G 37 16.09 Fair CLR 23 3 27% 74.93 0.0
04 12:15 W 17 G 41 16.09 Fair CLR 22.5 2.5 27% 74.93 0.0
04 11:55 SW 17 G 37 16.09 Fair CLR 22.6 2.3 26% 74.96 0.0
04 11:35 SW 15 G 35 16.09 Fair CLR 22.3 2.4 27% 74.98 0.0
04 11:15 SW 19 G 33 16.09 Fair CLR 22 3 29% 75.01 0.0
04 10:55 SW 20 G 30 16.09 Fair CLR 21.9 3.1 29% 75.03 0.0
04 10:35 SW 20 G 35 16.09 Fair CLR 20.6 2.6 31% 75.06 0.0
04 10:15 SW 19 G 39 16.09 Fair CLR 20.4 3.1 32% 75.06 0.0
04 09:55 SW 13 G 28 16.09 Fair CLR 19.6 3.3 34% 75.08 0.0
04 09:35 SW 15 G 28 16.09 Fair CLR 19.2 3.6 36% 75.08 0.0
04 09:15 SW 17 G 30 16.09 Fair CLR 18.4 2.8 36% 75.11 0.0
04 08:50 SW 15 G 26 16.09 Fair CLR 17.1 3.1 39% 75.13 0.0
04 08:35 SW 11 16.09 Fair CLR 16.6 3.3 41% 75.13 0.0
04 08:15 SW 11 16.09 Fair CLR 16 3.2 43% 75.16 0.0
04 07:55 SW 7 16.09 Fair CLR 15.3 4.3 48% 75.16 0.0
04 07:35 S 6 16.09 Fair CLR 13.6 3.8 52% 75.18 0.0
04 07:15 SW 6 16.09 Fair CLR 12.4 3.4 54% 75.18 0.0
04 06:55 S 6 16.09 Fair CLR 11.8 2.4 11.8 7.3 53% 75.16 0.0
04 06:35 Calm 16.09 Fair CLR 11.3 2 53% 75.16 0.0
04 06:15 SW 6 16.09 Fair CLR 10.5 2 56% 75.16 0.0
04 05:55 SW 7 16.09 Fair CLR 9.2 2.1 61% 8 75.16 0.0
04 05:35 SW 6 16.09 Fair CLR 8.9 2.4 64% 75.16 0.0
04 05:15 Calm 16.09 Fair CLR 8.2 3 70% 75.16 0.0
04 04:55 Calm 16.09 Fair CLR 8.7 3.3 69% 75.18 0.0
04 04:35 Calm 16.09 Fair CLR 9.1 3.5 68% 75.21 0.0
04 04:15 W 6 16.09 Fair CLR 9.2 3.6 68% 75.21 0.0
04 03:55 Calm 16.09 Fair CLR 9.5 3.9 68% 75.21 0.0
04 03:35 Calm 16.09 Fair CLR 9.7 4 68% 75.23 0.0
04 03:15 W 6 16.09 Fair CLR 9.8 4 67% 75.23 0.0
04 02:55 Calm 16.09 Fair CLR 10.5 4.1 65% 75.26 0.0
04 02:35 W 6 16.09 Fair CLR 10.3 4.5 68% 75.26 0.0
04 02:15 W 6 16.09 Fair CLR 10.5 4.5 67% 75.29 0.0
04 01:55 W 6 16.09 Fair CLR 10.8 4.7 66% 75.29 0.0
04 01:35 W 7 16.09 Fair CLR 10.5 4.8 68% 75.31 0.0
04 01:15 W 7 16.09 Fair CLR 10.5 5.1 70% 75.31 0.0
04 00:55 W 9 16.09 Fair CLR 10.8 5.2 19 10.8 69% 75.34 0.0
04 00:35 W 9 16.09 Fair CLR 11.7 5.5 66% 75.34 0.0
04 00:15 W 9 16.09 Fair CLR 12 5.7 66% 75.34 0.0
03 23:55 W 9 16.09 Fair CLR 11.9 5.7 66% 75.34 0.0
03 23:35 W 9 16.09 Fair CLR 13.1 6 62% 75.34 0.0
03 23:15 W 7 16.09 Fair CLR 14.5 5.7 56% 75.34 0.0
03 22:55 SW 7 16.09 Fair CLR 14 5.1 55% 75.34 0.0
03 22:35 Calm 16.09 Fair CLR 14.4 4.9 53% 75.36 0.0
03 22:15 SW 6 16.09 Fair CLR 14.4 4.7 52% 75.36 0.0
03 21:55 Calm 16.09 Fair CLR 14.3 4.7 53% 75.36 0.0
03 21:35 SW 6 16.09 Fair CLR 12.7 4.9 59% 75.36 0.0
03 21:15 Calm 16.09 Fair CLR 14.8 4.3 50% 75.34 0.0
03 20:55 Calm 16.09 Fair CLR 14 4.9 55% 75.34 0.0
03 20:35 Calm 16.09 Fair CLR 15.7 4.5 48% 75.34 0.0
03 20:15 Calm 16.09 Fair CLR 16.9 4.3 43% 75.34 0.0
03 19:55 Calm 16.09 Fair CLR 17.2 4.3 43% 75.34 0.0
03 19:30 W 6 16.09 Fair CLR 18.3 4.3 40% 75.34 0.0
03 19:15 W 7 16.09 Fair CLR 18.7 4.1 38% 75.31 0.0
03 18:55 SW 13 G 28 16.09 Fair CLR 19 4.3 19.5 15.9 38% 75.31 0.0
03 18:35 W 15 16.09 Fair CLR 19.2 4.8 39% 75.34 0.0
03 18:15 W 17 G 30 16.09 Fair CLR 19.3 4.6 38% 75.34 0.0
03 17:35 W 24 G 33 16.09 Fair CLR 19.2 4.4 38% 75.36 0.0
03 17:15 SW 20 G 35 16.09 Fair CLR 19.1 4.1 37% 75.39 0.0
03 16:55 SW 20 G 35 16.09 Fair CLR 19 4.2 38% 75.39 0.0
03 16:35 W 22 G 37 16.09 Fair CLR 18.8 4.3 39% 75.39 0.0
03 16:15 SW 20 G 39 16.09 Partly Cloudy SCT060 18.7 4.2 38% 75.39 0.0
03 15:55 SW 20 G 35 16.09 Partly Cloudy SCT060 18.8 4.6 39% 75.44 0.0
03 15:35 SW 17 G 48 16.09 Partly Cloudy SCT060 18.4 4.1 39% 75.44 0.0
03 15:15 SW 20 G 33 16.09 Mostly Cloudy BKN050 18.2 5 42% 75.46 0.0
03 14:55 SW 24 G 39 16.09 Mostly Cloudy BKN050 16.7 4.9 46% 75.51 0.0
03 14:35 SW 22 G 43 16.09 Mostly Cloudy BKN050 16.9 5.1 46% 75.54 0.0
03 14:15 SW 20 G 43 16.09 Partly Cloudy SCT060 16.8 3.8 42% 75.57 0.0
03 13:55 SW 15 G 43 16.09 Fair CLR 17 3.5 41% 75.57 0.0
03 13:35 S 30 G 44 16.09 Fair CLR 16.6 3 40% 75.57 0.0
03 13:15 S 20 G 37 16.09 Fair CLR 16.6 2.8 40% 75.57 0.0
03 12:55 SW 22 G 41 16.09 Partly Cloudy SCT085 15.7 4 15.7 9.1 46% 75.59 0.0
03 12:35 S 28 G 41 16.09 Mostly Cloudy BKN085 14.6 4.6 51% 75.62 0.0
03 12:15 S 20 G 41 16.09 Mostly Cloudy BKN085 14.1 4.3 52% 75.67 0.0
03 11:55 S 26 G 37 16.09 Overcast OVC085 13.4 4.1 54% 75.69 0.0
03 11:35 SW 17 G 37 16.09 Overcast OVC085 12.3 3.6 56% 75.74 0.0
03 11:15 S 15 G 26 16.09 Overcast BKN075 OVC080 11.1 4.1 62% 75.72 0.0
03 10:50 SW 17 G 33 16.09 Overcast OVC060 10.4 4.3 66% 75.79 0.0
03 10:35 SW 22 G 37 16.09 Light Drizzle BKN060 OVC070 10.3 4.5 68% 75.82 0.0
03 10:15 SW 19 G 50 16.09 Overcast SCT060 BKN080 OVC100 11.5 3.5 58% 75.82 0.0
03 09:55 W 28 G 44 16.09 Overcast SCT090 OVC110 12.2 3.1 54% 75.82 0.0
03 09:35 SW 20 G 43 16.09 Overcast OVC120 12.1 2.6 53% 75.84 0.0
03 09:15 SW 20 G 39 16.09 Mostly Cloudy BKN120 12 2.1 51% 75.84 0.0
03 08:55 SW 17 G 30 16.09 Fair CLR 12.2 2 50% 75.84 0.0
03 08:35 SW 20 G 39 16.09 Fair CLR 11.7 1.6 50% 75.87 0.0
03 08:15 SW 20 G 41 16.09 Fair CLR 11.2 1.1 50% 75.87 0.0
03 07:55 W 24 G 33 16.09 Partly Cloudy SCT100 10.6 0.6 50% 75.9 0.0
03 07:35 SW 17 G 35 16.09 Overcast OVC100 9.9 0 50% 8 75.87 0.0
03 07:15 SW 19 G 33 16.09 Overcast OVC100 9.3 -0.5 51% 7 75.9 0.0
03 06:55 SW 19 G 30 16.09 Overcast OVC100 9.1 -0.7 9.2 8 51% 7 75.87 0.0
03 06:35 SW 19 G 35 16.09 Overcast OVC100 9 -0.8 51% 7 75.87 0.0
03 06:15 SW 19 G 30 16.09 Mostly Cloudy BKN100 8.7 -1.1 51% 6 75.84 0.0
03 05:55 SW 17 16.09 Mostly Cloudy BKN100 8.8 -1.4 49% 7 75.87 0.0
03 05:35 W 19 G 28 16.09 Mostly Cloudy BKN100 8.5 -1.5 50% 6 75.87 0.0
03 05:10 W 15 G 26 16.09 Fair CLR 8.1 -1.7 50% 6 75.87 0.0
03 04:55 W 15 16.09 Fair CLR 8 -1.8 50% 6 75.9 0.0
03 04:35 SW 15 G 30 16.09 Partly Cloudy SCT110 8 -2 50% 6 75.9 0.0
03 04:15 SW 17 G 28 16.09 Fair CLR 8.2 -2.2 48% 6 75.9 0.0
03 03:55 SW 13 G 28 16.09 Fair CLR 8.3 -2.4 47% 6 75.92 0.0
03 03:35 SW 9 16.09 Fair CLR 8.3 -2.3 48% 7 75.95 0.0
03 03:15 SW 9 16.09 Fair CLR 8.3 -2.2 48% 7 75.95 0.0
03 02:55 SW 11 16.09 Fair CLR 8.2 -2 49% 7 75.95 0.0
03 02:35 SW 13 16.09 Fair CLR 8.4 -2.1 48% 7 75.97 0.0
03 02:15 SW 11 16.09 Fair CLR 8.3 -2.2 48% 7 75.97 0.0
03 01:55 SW 13 16.09 Fair CLR 8.6 -2.5 46% 7 75.97 0.0
03 01:35 W 13 16.09 Fair CLR 8.5 -2.5 46% 7 76 0.0
03 01:15 SW 11 16.09 Partly Cloudy SCT095 8.6 -2.7 45% 7 76 0.0
03 00:55 SW 11 16.09 Fair CLR 8.7 -2.7 12.5 8.7 45% 7 76.02 0.0
03 00:35 SW 11 16.09 Fair CLR 8.8 -2.9 44% 7 76.02 0.0
03 00:15 SW 11 16.09 Fair CLR 8.7 -2.7 45% 7 76.02 0.0
02 23:55 SW 13 16.09 Fair CLR 8.8 -2.8 44% 7 76.02 0.0
02 23:35 SW 9 16.09 Fair CLR 9 -2.9 43% 8 76.05 0.0
02 23:15 SW 9 16.09 Fair CLR 9 -2.6 44% 8 76.05 0.0
02 22:55 SW 9 16.09 Fair CLR 8.9 -2.5 45% 8 76.07 0.0
02 22:35 SW 9 16.09 Fair CLR 8.8 -2.2 46% 8 76.07 0.0
02 22:15 SW 7 16.09 Fair CLR 8.9 -2 47% 8 76.1 0.0
02 21:55 SW 7 16.09 Fair CLR 8.8 -1.7 48% 8 76.1 0.0
02 21:35 SW 6 16.09 Fair CLR 8.8 -1.8 48% 76.1 0.0
02 21:15 SW 6 16.09 Fair CLR 9.1 -2.2 45% 76.1 0.0
02 20:55 Calm 16.09 Fair CLR 9.5 -2.5 43% 76.1 0.0
02 20:35 SW 6 16.09 Fair CLR 9.9 -2.5 42% 76.07 0.0
02 20:15 SW 6 16.09 Fair CLR 10.3 -2.6 41% 76.07 0.0
02 19:55 SW 6 16.09 Partly Cloudy SCT085 10.8 -2.6 39% 76.07 0.0
02 19:35 SW 6 16.09 Partly Cloudy SCT085 11.4 -2.5 38% 76.07 0.0
02 19:15 SW 6 16.09 Partly Cloudy SCT085 12 -2.8 36% 76.1 0.0
02 18:55 SW 9 16.09 Mostly Cloudy BKN085 12.2 -3.1 13.7 10.4 35% 76.1 0.0
02 18:35 W 15 G 28 16.09 Overcast OVC095 12.7 -3.2 33% 76.12 0.0
02 18:15 W 11 16.09 Mostly Cloudy BKN095 12.7 -3.1 33% 76.12 0.0
Date Time (cdt) Wind (kph) Vis. (km) Weather Sky Cond. Air Dwpt Max. Min. Relative Humidity Wind Chill (°C) Heat Index (°C) altimeter (cm) sea level (mb) 1 hr 3 hr 6 hr
6 hour
Temperature (ºC) Pressure Precipitation (cm)